Time;durP1;ratioP1;P1;durP2;ratioP2;P2;SDS_P1;SDS_P2;PMS_P1;PMS_P2;Temp;Humidity;BMP_temperature;BMP_pressure;BME280_temperature;BME280_humidity;BME280_pressure;Samples;Min_cycle;Max_cycle;Signal;HPM_P1;HPM_P2
2022/03/13 00:00:49;;;;;;;24.50;18.50;;;5.30;65.30;;;;;;6134442;23;20667;-83
2022/03/13 00:03:18;;;;;;;23.17;17.67;;;5.20;65.20;;;;;;6132604;23;20208;-83
2022/03/13 00:05:48;;;;;;;21.00;18.80;;;5.20;65.60;;;;;;6132837;23;20184;-83
2022/03/13 00:08:23;;;;;;;24.70;20.25;;;5.20;65.30;;;;;;6132995;23;20243;-83
2022/03/13 00:10:53;;;;;;;24.63;18.25;;;5.20;66.00;;;;;;6132885;23;20168;-83
2022/03/13 00:13:20;;;;;;;22.58;18.67;;;5.10;66.00;;;;;;6132774;23;20160;-83
2022/03/13 00:15:52;;;;;;;26.98;18.20;;;5.10;65.90;;;;;;6133310;23;20194;-83
2022/03/13 00:18:19;;;;;;;23.48;18.90;;;5.10;66.20;;;;;;6133166;23;20215;-83
2022/03/13 00:20:46;;;;;;;21.25;18.50;;;5.10;66.60;;;;;;6132713;23;20184;-83
2022/03/13 00:23:13;;;;;;;22.55;19.88;;;5.00;66.20;;;;;;6132037;23;20231;-83
2022/03/13 00:25:41;;;;;;;20.52;17.00;;;5.00;65.70;;;;;;6133104;23;20187;-83
2022/03/13 00:28:08;;;;;;;25.90;18.05;;;5.00;65.30;;;;;;6133423;23;20546;-83
2022/03/13 00:30:35;;;;;;;18.40;16.70;;;5.00;64.90;;;;;;6132729;23;20180;-83
2022/03/13 00:33:02;;;;;;;22.98;20.50;;;5.00;64.60;;;;;;6132561;23;20200;-83
2022/03/13 00:35:29;;;;;;;22.08;17.40;;;4.90;64.10;;;;;;6131827;23;20191;-83
2022/03/13 00:37:56;;;;;;;25.85;17.23;;;4.90;64.20;;;;;;6132486;23;20187;-83
2022/03/13 00:40:23;;;;;;;21.63;17.65;;;4.80;64.30;;;;;;6131818;23;20191;-82
2022/03/13 00:42:51;;;;;;;19.88;16.60;;;4.90;65.10;;;;;;6132031;23;20707;-83
2022/03/13 00:45:18;;;;;;;23.25;17.70;;;4.80;65.10;;;;;;6132347;23;20186;-83
2022/03/13 00:47:45;;;;;;;25.88;17.85;;;4.80;65.30;;;;;;6132181;23;20186;-83
2022/03/13 00:50:11;;;;;;;20.60;17.10;;;4.80;66.00;;;;;;6132274;23;20246;-83
2022/03/13 00:52:38;;;;;;;24.38;17.67;;;4.70;66.20;;;;;;6131486;23;20206;-83
2022/03/13 00:55:06;;;;;;;25.95;18.58;;;4.70;66.40;;;;;;6132215;23;20190;-83
2022/03/13 00:57:33;;;;;;;17.30;15.00;;;4.70;66.30;;;;;;6132285;23;20209;-83
2022/03/13 01:00:01;;;;;;;22.90;18.00;;;4.60;66.10;;;;;;6135628;23;20184;-82
2022/03/13 01:02:28;;;;;;;18.70;14.52;;;4.60;65.80;;;;;;6131562;23;20210;-85
2022/03/13 01:04:55;;;;;;;23.20;18.13;;;4.60;66.20;;;;;;6132471;23;20180;-83
2022/03/13 01:07:22;;;;;;;22.33;16.60;;;4.60;66.20;;;;;;6132539;23;20179;-83
2022/03/13 01:09:48;;;;;;;23.20;18.73;;;4.50;66.30;;;;;;6132493;23;20180;-83
2022/03/13 01:12:15;;;;;;;21.95;17.30;;;4.30;66.70;;;;;;6131693;23;20667;-83
2022/03/13 01:14:42;;;;;;;21.33;18.15;;;4.30;67.60;;;;;;6131823;23;20188;-83
2022/03/13 01:17:11;;;;;;;21.45;15.68;;;4.30;68.00;;;;;;6148641;23;20194;-82
2022/03/13 01:19:38;;;;;;;25.10;16.65;;;4.30;68.20;;;;;;6150345;23;20183;-82
2022/03/13 01:22:05;;;;;;;20.85;16.17;;;4.30;68.50;;;;;;6149668;23;20211;-80
2022/03/13 01:24:42;;;;;;;18.63;16.23;;;4.30;68.30;;;;;;6145044;23;20186;-83
2022/03/13 01:27:10;;;;;;;17.60;15.73;;;4.30;68.20;;;;;;6132312;23;20168;-83
2022/03/13 01:29:37;;;;;;;18.55;15.43;;;4.30;67.60;;;;;;6132179;23;20191;-84
2022/03/13 01:32:04;;;;;;;18.98;16.95;;;4.30;67.60;;;;;;6131574;23;20203;-83
2022/03/13 01:34:44;;;;;;;21.23;16.60;;;4.20;67.70;;;;;;6132063;23;20701;-83
2022/03/13 01:37:19;;;;;;;19.60;14.30;;;4.20;67.80;;;;;;6132310;23;20224;-83
2022/03/13 01:39:45;;;;;;;15.05;13.50;;;4.20;67.80;;;;;;6132155;23;20167;-83
2022/03/13 01:42:12;;;;;;;21.65;16.67;;;4.20;68.20;;;;;;6131507;23;20206;-83
2022/03/13 01:44:39;;;;;;;22.48;17.30;;;4.10;68.70;;;;;;6132378;23;20194;-83
2022/03/13 01:47:07;;;;;;;26.23;15.13;;;4.10;69.30;;;;;;6135627;23;20479;-83
2022/03/13 01:49:34;;;;;;;18.13;16.10;;;4.10;69.50;;;;;;6133910;23;20183;-83
2022/03/13 01:52:03;;;;;;;21.45;16.10;;;4.00;69.50;;;;;;6132705;23;20203;-83
2022/03/13 01:54:31;;;;;;;17.88;15.52;;;4.00;69.60;;;;;;6132896;23;20195;-84
2022/03/13 01:56:59;;;;;;;24.58;16.67;;;4.00;69.80;;;;;;6132048;23;20186;-83
2022/03/13 01:59:28;;;;;;;22.98;14.30;;;4.00;69.80;;;;;;6131531;23;20191;-84
2022/03/13 02:01:55;;;;;;;16.50;14.60;;;3.70;69.90;;;;;;6130997;23;20204;-83
2022/03/13 02:04:26;;;;;;;16.48;14.85;;;3.80;70.30;;;;;;6132445;23;20203;-84
2022/03/13 02:06:54;;;;;;;22.63;15.25;;;3.70;70.50;;;;;;6132521;23;20168;-83
2022/03/13 02:09:23;;;;;;;16.98;13.48;;;3.60;70.30;;;;;;6134403;23;20690;-83
2022/03/13 02:11:51;;;;;;;19.27;15.13;;;3.60;70.00;;;;;;6132753;23;20221;-83
2022/03/13 02:14:21;;;;;;;16.85;15.10;;;3.60;70.00;;;;;;6133918;23;20210;-83
2022/03/13 02:16:48;;;;;;;19.23;14.20;;;3.60;69.50;;;;;;6133639;23;20219;-83
2022/03/13 02:19:16;;;;;;;19.02;13.68;;;3.60;69.30;;;;;;6133317;23;20184;-83
2022/03/13 02:21:45;;;;;;;20.92;14.63;;;3.60;69.40;;;;;;6132891;23;20218;-83
2022/03/13 02:24:16;;;;;;;16.83;15.02;;;3.60;69.40;;;;;;6130351;23;20205;-82
2022/03/13 02:26:44;;;;;;;23.60;16.58;;;3.60;69.50;;;;;;6136543;23;20172;-82
2022/03/13 02:29:13;;;;;;;18.40;14.30;;;3.50;69.70;;;;;;6135370;23;20183;-82
2022/03/13 02:31:40;;;;;;;17.80;15.52;;;3.50;70.10;;;;;;6134837;23;20190;-82
2022/03/13 02:34:13;;;;;;;20.73;15.82;;;3.50;70.30;;;;;;6135719;23;20231;-82
2022/03/13 02:36:56;;;;;;;16.02;13.75;;;3.50;70.50;;;;;;6135599;23;20183;-82
2022/03/13 02:39:25;;;;;;;17.65;15.20;;;3.50;70.80;;;;;;6132710;23;20193;-82
2022/03/13 02:41:52;;;;;;;22.30;14.60;;;3.50;70.60;;;;;;6135554;23;20186;-82
2022/03/13 02:44:18;;;;;;;19.98;14.80;;;3.50;70.40;;;;;;6135480;23;20206;-82
2022/03/13 02:47:00;;;;;;;21.35;14.63;;;3.50;70.50;;;;;;6136820;23;20187;-82
2022/03/13 02:49:29;;;;;;;25.58;14.13;;;3.50;70.50;;;;;;6136174;23;20164;-82
2022/03/13 02:51:59;;;;;;;18.50;14.30;;;3.40;70.30;;;;;;6135446;23;20182;-82
2022/03/13 02:54:28;;;;;;;22.30;13.63;;;3.40;70.20;;;;;;6135881;23;20195;-82
2022/03/13 02:56:55;;;;;;;21.52;15.70;;;3.50;70.50;;;;;;6136253;23;20187;-82
2022/03/13 02:59:22;;;;;;;18.80;15.90;;;3.40;70.60;;;;;;6135316;23;20169;-82
2022/03/13 03:01:50;;;;;;;16.42;14.10;;;3.40;71.10;;;;;;6133961;23;20194;-82
2022/03/13 03:04:18;;;;;;;14.88;13.30;;;3.40;71.40;;;;;;6134055;23;20206;-82
2022/03/13 03:07:00;;;;;;;18.02;15.77;;;3.30;71.20;;;;;;6134156;23;20191;-82
2022/03/13 03:09:31;;;;;;;20.33;15.57;;;3.40;71.80;;;;;;6133174;23;20208;-82
2022/03/13 03:12:00;;;;;;;16.73;14.80;;;3.30;72.10;;;;;;6134239;23;20182;-82
2022/03/13 03:14:29;;;;;;;18.02;14.20;;;3.30;72.80;;;;;;6134873;23;20650;-82
2022/03/13 03:16:56;;;;;;;18.85;15.05;;;3.30;73.50;;;;;;6136300;23;20208;-82
2022/03/13 03:19:23;;;;;;;16.92;14.48;;;3.30;73.80;;;;;;6135488;23;20254;-82
2022/03/13 03:21:52;;;;;;;17.98;13.52;;;3.30;73.80;;;;;;6135121;23;20262;-82
2022/03/13 03:24:20;;;;;;;19.88;13.45;;;3.20;73.40;;;;;;6135093;23;20327;-82
2022/03/13 03:26:49;;;;;;;15.80;13.93;;;3.20;72.80;;;;;;6136114;23;20250;-82
2022/03/13 03:29:17;;;;;;;14.48;12.98;;;3.10;72.80;;;;;;6135854;23;20225;-82
2022/03/13 03:31:46;;;;;;;22.83;15.18;;;3.10;72.80;;;;;;6135771;23;20227;-82
2022/03/13 03:34:14;;;;;;;16.77;12.52;;;3.10;72.60;;;;;;6136344;23;20215;-82
2022/03/13 03:36:48;;;;;;;19.27;13.95;;;3.20;72.80;;;;;;6135685;23;20182;-82
2022/03/13 03:39:16;;;;;;;16.95;13.15;;;3.10;72.60;;;;;;6136492;23;20171;-82
2022/03/13 03:41:44;;;;;;;20.35;13.70;;;3.20;72.30;;;;;;6148690;23;20187;-82
2022/03/13 03:44:15;;;;;;;16.67;14.85;;;3.20;71.90;;;;;;6152526;23;20211;-82
2022/03/13 03:46:47;;;;;;;16.73;13.80;;;3.20;71.80;;;;;;6140938;23;20179;-83
2022/03/13 03:49:17;;;;;;;16.95;14.32;;;3.20;72.00;;;;;;6133726;23;20198;-82
2022/03/13 03:51:46;;;;;;;23.17;14.18;;;3.20;71.90;;;;;;6144172;23;20201;-82
2022/03/13 03:54:17;;;;;;;19.00;13.77;;;3.20;71.50;;;;;;6124793;23;20203;-82
2022/03/13 03:56:45;;;;;;;15.10;12.90;;;3.20;71.40;;;;;;6152246;23;20167;-82
2022/03/13 04:01:56;;;;;;;20.80;13.93;;;3.30;71.70;;;;;;6134687;23;20182;-82
2022/03/13 04:04:32;;;;;;;23.00;15.00;;;3.30;72.10;;;;;;6117888;23;20241;-82
2022/03/13 04:06:59;;;;;;;16.52;13.65;;;3.30;72.30;;;;;;6128037;23;20255;-82
2022/03/13 04:09:28;;;;;;;18.40;15.00;;;3.30;72.20;;;;;;6148647;23;20214;-82
2022/03/13 04:11:56;;;;;;;22.33;13.35;;;3.30;72.50;;;;;;6133756;23;20186;-82
2022/03/13 04:14:25;;;;;;;17.08;13.63;;;3.30;72.70;;;;;;6135722;23;20236;-82
2022/03/13 04:16:53;;;;;;;18.08;14.63;;;3.30;73.10;;;;;;6133484;23;20227;-82
2022/03/13 04:19:21;;;;;;;17.08;12.93;;;3.30;73.30;;;;;;6132805;23;20231;-82
2022/03/13 04:21:48;;;;;;;17.42;14.85;;;3.20;73.50;;;;;;6132615;23;20184;-82
2022/03/13 04:24:15;;;;;;;18.33;14.32;;;3.20;73.80;;;;;;6132384;23;20271;-82
2022/03/13 04:26:42;;;;;;;20.20;15.52;;;3.20;73.50;;;;;;6132467;23;20168;-82
2022/03/13 04:29:09;;;;;;;19.40;15.55;;;3.20;73.40;;;;;;6134646;23;20189;-82
2022/03/13 04:31:39;;;;;;;14.93;13.13;;;3.20;73.50;;;;;;6134766;23;20211;-82
2022/03/13 04:34:06;;;;;;;19.85;14.77;;;3.20;73.40;;;;;;6135316;23;20188;-82
2022/03/13 04:36:33;;;;;;;19.75;15.40;;;3.10;73.90;;;;;;6133644;23;20214;-82
2022/03/13 04:39:01;;;;;;;20.17;14.48;;;3.10;74.00;;;;;;6134601;23;20186;-82
2022/03/13 04:41:27;;;;;;;20.55;15.80;;;3.10;74.10;;;;;;6135053;23;20190;-82
2022/03/13 04:43:55;;;;;;;23.08;14.20;;;3.00;73.60;;;;;;6134936;23;20222;-82
2022/03/13 04:46:23;;;;;;;16.92;14.15;;;3.00;74.50;;;;;;6135071;23;20195;-82
2022/03/13 04:48:51;;;;;;;19.55;13.90;;;3.00;74.80;;;;;;6135727;23;20305;-82
2022/03/13 04:51:18;;;;;;;21.90;15.95;;;3.00;75.00;;;;;;6134905;23;20293;-83
2022/03/13 04:53:44;;;;;;;20.83;14.77;;;2.90;75.60;;;;;;6135831;23;20183;-82
2022/03/13 04:56:11;;;;;;;19.15;14.77;;;2.90;76.10;;;;;;6135870;23;20284;-82
2022/03/13 04:58:38;;;;;;;22.65;14.32;;;2.90;76.40;;;;;;6135421;23;20237;-82
2022/03/13 05:01:05;;;;;;;20.35;14.23;;;2.90;76.80;;;;;;6134726;23;20187;-82
2022/03/13 05:03:33;;;;;;;19.20;15.50;;;2.90;77.10;;;;;;6135257;23;20232;-82
2022/03/13 05:06:04;;;;;;;17.00;14.35;;;2.90;77.20;;;;;;6134328;23;20230;-82
2022/03/13 05:08:31;;;;;;;22.58;17.42;;;2.90;77.40;;;;;;6134738;23;20171;-82
2022/03/13 05:10:59;;;;;;;21.63;14.45;;;2.90;77.70;;;;;;6134926;23;20579;-82
2022/03/13 05:13:27;;;;;;;19.20;13.52;;;2.80;77.80;;;;;;6134802;23;20266;-82
2022/03/13 05:15:54;;;;;;;20.10;14.27;;;2.80;78.20;;;;;;6134668;23;20205;-82
2022/03/13 05:18:21;;;;;;;26.55;15.30;;;2.80;78.70;;;;;;6134276;23;20262;-82
2022/03/13 05:20:48;;;;;;;21.45;15.73;;;2.80;79.00;;;;;;6134443;23;20234;-82
2022/03/13 05:23:16;;;;;;;19.88;17.52;;;2.80;79.20;;;;;;6134992;23;20193;-82
2022/03/13 05:25:43;;;;;;;19.50;16.20;;;2.80;79.30;;;;;;6134963;23;20214;-82
2022/03/13 05:28:10;;;;;;;20.52;14.80;;;2.80;79.50;;;;;;6135244;23;20244;-82
2022/03/13 05:30:38;;;;;;;22.40;15.20;;;2.80;80.50;;;;;;6134442;23;20254;-82
2022/03/13 05:33:05;;;;;;;21.65;15.00;;;2.80;81.20;;;;;;6135186;23;20237;-82
2022/03/13 05:35:32;;;;;;;22.27;15.43;;;2.80;81.30;;;;;;6135354;23;20203;-82
2022/03/13 05:37:59;;;;;;;16.55;14.68;;;2.80;81.80;;;;;;6135232;23;20260;-82
2022/03/13 05:40:28;;;;;;;19.98;15.80;;;2.90;82.10;;;;;;6134505;23;20799;-82
2022/03/13 05:42:58;;;;;;;26.58;14.18;;;2.90;82.40;;;;;;6136105;23;20201;-82
2022/03/13 05:45:26;;;;;;;20.42;14.27;;;2.90;82.70;;;;;;6136054;23;20221;-82
2022/03/13 05:47:56;;;;;;;18.42;15.07;;;2.90;82.60;;;;;;6136671;23;20185;-82
2022/03/13 05:50:25;;;;;;;20.08;15.07;;;3.00;83.70;;;;;;6136093;23;20183;-82
2022/03/13 05:53:02;;;;;;;19.75;14.25;;;3.00;83.00;;;;;;6135868;23;20179;-82
2022/03/13 05:55:31;;;;;;;23.38;15.20;;;3.00;83.20;;;;;;6135844;23;20254;-83
2022/03/13 05:58:02;;;;;;;19.73;14.38;;;3.00;83.90;;;;;;6135599;23;20331;-82
2022/03/13 06:00:32;;;;;;;20.23;17.10;;;3.10;84.60;;;;;;6135746;23;20473;-82
2022/03/13 06:03:02;;;;;;;20.55;15.98;;;3.10;84.90;;;;;;6135993;23;20186;-82
2022/03/13 06:05:34;;;;;;;22.48;16.45;;;3.20;85.60;;;;;;6135239;23;20523;-82
2022/03/13 06:08:03;;;;;;;21.98;17.85;;;3.20;85.70;;;;;;6135684;23;20177;-82
2022/03/13 06:10:33;;;;;;;21.08;15.38;;;3.30;85.80;;;;;;6134918;23;20634;-82
2022/03/13 06:13:01;;;;;;;20.25;14.73;;;3.30;85.80;;;;;;6136241;23;20383;-82
2022/03/13 06:15:29;;;;;;;22.40;15.93;;;3.40;86.00;;;;;;6135908;23;20203;-82
2022/03/13 06:17:58;;;;;;;19.08;16.00;;;3.50;86.00;;;;;;6135864;23;20574;-82
2022/03/13 06:20:28;;;;;;;22.75;16.20;;;3.50;85.80;;;;;;6135535;23;20192;-82
2022/03/13 06:22:59;;;;;;;20.48;16.85;;;3.50;86.20;;;;;;6136549;23;20184;-82
2022/03/13 06:25:26;;;;;;;19.55;13.70;;;3.60;86.20;;;;;;6134941;23;20238;-82
2022/03/13 06:27:54;;;;;;;18.08;16.25;;;3.70;86.20;;;;;;6136022;23;20561;-82
2022/03/13 06:30:21;;;;;;;17.35;13.85;;;3.60;86.20;;;;;;6135037;23;20235;-82
2022/03/13 06:32:50;;;;;;;18.05;14.52;;;3.70;86.70;;;;;;6135514;23;20179;-82
2022/03/13 06:35:18;;;;;;;20.52;15.32;;;3.80;87.10;;;;;;6135747;23;20542;-82
2022/03/13 06:37:46;;;;;;;21.65;14.90;;;3.90;87.50;;;;;;6134988;23;20575;-82
2022/03/13 06:40:16;;;;;;;21.98;17.25;;;4.00;87.10;;;;;;6135659;23;20190;-82
2022/03/13 06:42:42;;;;;;;29.52;17.05;;;4.10;86.80;;;;;;6135961;23;20194;-82
2022/03/13 06:45:11;;;;;;;15.95;13.93;;;4.20;86.60;;;;;;6134905;23;20200;-82
2022/03/13 06:47:38;;;;;;;17.35;15.45;;;4.30;86.30;;;;;;6134658;23;20745;-82
2022/03/13 06:50:07;;;;;;;16.13;14.05;;;4.40;86.00;;;;;;6135763;23;20183;-82
2022/03/13 06:52:33;;;;;;;21.70;17.90;;;4.40;84.20;;;;;;6134829;23;20184;-82
2022/03/13 06:55:00;;;;;;;29.45;16.23;;;4.50;83.20;;;;;;6134990;23;20196;-82
2022/03/13 06:57:27;;;;;;;26.27;15.27;;;4.50;81.80;;;;;;6135213;23;20179;-82
2022/03/13 06:59:54;;;;;;;21.67;17.38;;;4.50;81.00;;;;;;6135021;23;20183;-82
2022/03/13 07:02:22;;;;;;;24.55;17.27;;;4.50;80.00;;;;;;6135241;23;20186;-82
2022/03/13 07:04:49;;;;;;;21.33;15.18;;;4.50;79.60;;;;;;6135282;23;20522;-82
2022/03/13 07:07:15;;;;;;;19.92;15.95;;;4.50;79.00;;;;;;6134866;23;20507;-82
2022/03/13 07:09:42;;;;;;;24.17;15.68;;;4.40;78.40;;;;;;6135429;23;20176;-82
2022/03/13 07:12:11;;;;;;;20.95;13.70;;;4.40;76.90;;;;;;6133906;23;20244;-82
2022/03/13 07:14:38;;;;;;;20.33;16.33;;;4.30;76.40;;;;;;6135925;23;20192;-82
2022/03/13 07:17:05;;;;;;;22.10;16.70;;;4.30;77.00;;;;;;6134955;23;20210;-83
2022/03/13 07:19:33;;;;;;;18.90;16.58;;;4.20;78.50;;;;;;6135085;23;20184;-82
2022/03/13 07:22:00;;;;;;;20.75;16.85;;;4.30;79.50;;;;;;6134196;23;20215;-82
2022/03/13 07:24:27;;;;;;;20.40;16.90;;;4.30;80.10;;;;;;6135080;23;20530;-82
2022/03/13 07:26:53;;;;;;;19.38;17.08;;;4.30;79.90;;;;;;6134908;23;20178;-82
2022/03/13 07:29:20;;;;;;;21.77;16.65;;;4.30;79.60;;;;;;6135747;23;20190;-82
2022/03/13 07:31:47;;;;;;;22.15;17.23;;;4.50;79.20;;;;;;6135565;23;20194;-83
2022/03/13 07:34:14;;;;;;;19.50;16.98;;;4.50;79.00;;;;;;6135788;23;20259;-83
2022/03/13 07:36:42;;;;;;;22.38;16.58;;;4.60;79.40;;;;;;6134984;23;20190;-83
2022/03/13 07:39:09;;;;;;;23.10;18.05;;;4.70;79.60;;;;;;6135553;23;20527;-83
2022/03/13 07:41:36;;;;;;;21.02;16.63;;;4.70;79.80;;;;;;6135188;23;20263;-83
2022/03/13 07:44:04;;;;;;;20.17;17.48;;;4.70;81.10;;;;;;6134284;23;20196;-83
2022/03/13 07:46:31;;;;;;;21.35;17.50;;;4.80;80.80;;;;;;6133488;23;20180;-83
2022/03/13 07:49:00;;;;;;;20.00;16.33;;;5.00;81.10;;;;;;6132498;23;20231;-83
2022/03/13 07:51:28;;;;;;;17.25;15.38;;;5.10;80.40;;;;;;6106133;23;20559;-83
2022/03/13 07:53:57;;;;;;;18.05;14.98;;;5.20;79.90;;;;;;6134531;23;20233;-83
2022/03/13 07:56:25;;;;;;;17.90;15.90;;;5.30;78.90;;;;;;6132856;23;20180;-83
2022/03/13 07:58:52;;;;;;;16.95;15.18;;;5.40;78.40;;;;;;6133552;23;20231;-83
2022/03/13 08:01:19;;;;;;;20.73;17.77;;;5.40;77.40;;;;;;6133608;23;20184;-83
2022/03/13 08:03:51;;;;;;;18.60;16.58;;;5.50;77.00;;;;;;6134212;23;20630;-83
2022/03/13 08:06:17;;;;;;;22.65;17.58;;;5.70;77.30;;;;;;6134245;23;20204;-84
2022/03/13 08:08:45;;;;;;;22.38;17.17;;;5.80;76.70;;;;;;6134291;23;20176;-84
2022/03/13 08:11:14;;;;;;;18.88;16.17;;;5.90;76.40;;;;;;6133404;23;20187;-83
2022/03/13 08:13:40;;;;;;;24.33;17.23;;;6.00;76.10;;;;;;6134633;23;20180;-83
2022/03/13 08:16:07;;;;;;;21.10;18.85;;;6.10;74.30;;;;;;6135490;23;20214;-83
2022/03/13 08:18:34;;;;;;;20.48;18.30;;;6.20;73.90;;;;;;6133764;23;20180;-83
2022/03/13 08:21:01;;;;;;;22.08;16.88;;;6.30;74.10;;;;;;6135830;23;20183;-83
2022/03/13 08:23:28;;;;;;;20.80;18.58;;;6.40;74.50;;;;;;6135229;23;20194;-83
2022/03/13 08:25:56;;;;;;;21.63;17.98;;;6.50;74.40;;;;;;6126546;23;20520;-84
2022/03/13 08:28:24;;;;;;;22.45;16.90;;;6.60;73.30;;;;;;6130221;23;20192;-84
2022/03/13 08:30:50;;;;;;;18.65;14.95;;;6.80;73.00;;;;;;6130484;23;20191;-84
2022/03/13 08:33:17;;;;;;;24.85;18.13;;;6.90;72.40;;;;;;6130515;23;20183;-84
2022/03/13 08:35:44;;;;;;;20.95;16.88;;;7.00;72.20;;;;;;6130000;23;20199;-84
2022/03/13 08:38:11;;;;;;;24.63;18.15;;;7.10;72.10;;;;;;6130303;23;20235;-84
2022/03/13 08:40:38;;;;;;;22.52;16.20;;;7.20;72.10;;;;;;6130082;23;20281;-84
2022/03/13 08:43:05;;;;;;;22.02;18.05;;;7.40;72.00;;;;;;6129836;23;20191;-84
2022/03/13 08:45:33;;;;;;;18.95;16.15;;;7.50;71.00;;;;;;6129365;23;20205;-84
2022/03/13 08:48:00;;;;;;;19.95;17.25;;;7.70;69.70;;;;;;6129551;23;20187;-84
2022/03/13 08:50:27;;;;;;;20.90;17.67;;;7.80;69.50;;;;;;6129223;23;20199;-84
2022/03/13 08:52:55;;;;;;;21.17;17.05;;;7.80;69.20;;;;;;6129737;23;20179;-84
2022/03/13 08:55:22;;;;;;;27.13;19.23;;;8.00;69.60;;;;;;6129347;23;20212;-84
2022/03/13 08:57:49;;;;;;;21.08;18.85;;;8.10;68.60;;;;;;6129347;23;20184;-84
2022/03/13 09:00:18;;;;;;;22.50;17.63;;;8.20;69.10;;;;;;6129551;23;20185;-84
2022/03/13 09:02:47;;;;;;;25.13;15.73;;;8.30;69.20;;;;;;6129641;23;20205;-84
2022/03/13 09:05:15;;;;;;;21.63;19.38;;;8.50;67.10;;;;;;6128353;23;20215;-84
2022/03/13 09:07:42;;;;;;;21.00;18.00;;;8.60;68.50;;;;;;6129177;23;20185;-83
2022/03/13 09:10:11;;;;;;;24.10;18.77;;;8.80;69.30;;;;;;6129818;23;20192;-83
2022/03/13 09:12:39;;;;;;;21.87;17.60;;;8.90;66.10;;;;;;6129087;23;20474;-84
2022/03/13 09:15:07;;;;;;;22.02;16.45;;;9.10;66.00;;;;;;6129880;23;20452;-84
2022/03/13 09:17:34;;;;;;;19.77;16.60;;;9.20;66.40;;;;;;6127494;23;20190;-84
2022/03/13 09:20:03;;;;;;;24.67;18.40;;;9.30;65.50;;;;;;6128209;23;20414;-84
2022/03/13 09:22:30;;;;;;;20.63;18.53;;;9.50;64.00;;;;;;6128631;23;20413;-84
2022/03/13 09:24:57;;;;;;;20.27;17.17;;;9.60;64.40;;;;;;6127805;23;20485;-84
2022/03/13 09:27:24;;;;;;;19.47;16.33;;;9.70;64.70;;;;;;6128940;23;20413;-84
2022/03/13 09:29:51;;;;;;;19.93;17.73;;;9.80;64.90;;;;;;6131378;23;20392;-85
2022/03/13 09:32:17;;;;;;;19.60;17.50;;;10.00;63.30;;;;;;6129851;23;20407;-83
2022/03/13 09:34:44;;;;;;;21.23;18.93;;;10.20;61.70;;;;;;6127522;23;20963;-84
2022/03/13 09:37:12;;;;;;;21.03;18.53;;;10.30;61.70;;;;;;6128581;23;20414;-84
2022/03/13 09:39:39;;;;;;;20.80;18.43;;;10.40;60.70;;;;;;6127192;23;20422;-83
2022/03/13 09:44:49;;;;;;;25.40;18.90;;;10.60;60.10;;;;;;6080629;23;20512;-83
2022/03/13 09:47:16;;;;;;;19.40;17.30;;;10.70;59.10;;;;;;6132653;23;20425;-83
2022/03/13 09:49:56;;;;;;;20.43;16.97;;;10.90;59.50;;;;;;6132392;23;20418;-86
2022/03/13 09:52:24;;;;;;;19.70;17.70;;;11.00;59.50;;;;;;6103154;23;20493;-82
2022/03/13 09:54:51;;;;;;;21.77;18.27;;;11.10;59.10;;;;;;6129805;23;20436;-83
2022/03/13 09:57:19;;;;;;;19.43;16.70;;;11.30;58.90;;;;;;6128670;23;20418;-84
2022/03/13 09:59:46;;;;;;;23.77;17.70;;;11.40;58.70;;;;;;6127830;23;20786;-83
2022/03/13 10:02:14;;;;;;;19.70;17.17;;;11.60;58.20;;;;;;6128766;23;20414;-83
2022/03/13 10:04:40;;;;;;;23.83;18.57;;;11.80;57.50;;;;;;6128294;23;20442;-82
2022/03/13 10:07:10;;;;;;;18.93;16.80;;;11.90;56.90;;;;;;6127640;23;20411;-82
2022/03/13 10:09:40;;;;;;;21.73;16.27;;;12.00;57.80;;;;;;6128136;23;20415;-83
2022/03/13 10:12:09;;;;;;;18.87;16.90;;;12.10;57.30;;;;;;6128527;23;20411;-82
2022/03/13 10:14:39;;;;;;;18.97;17.07;;;12.30;56.50;;;;;;6127037;23;20431;-83
2022/03/13 10:17:07;;;;;;;22.30;18.03;;;12.40;55.90;;;;;;6127607;23;20949;-83
2022/03/13 10:19:34;;;;;;;20.97;17.40;;;12.40;55.10;;;;;;6127239;23;20419;-83
2022/03/13 10:22:05;;;;;;;19.40;17.27;;;12.40;54.90;;;;;;6127518;23;20415;-82
2022/03/13 10:24:41;;;;;;;19.53;16.10;;;12.50;55.00;;;;;;6127836;23;20392;-83
2022/03/13 10:27:13;;;;;;;23.97;17.60;;;12.80;55.40;;;;;;6128427;23;20383;-83
2022/03/13 10:29:40;;;;;;;19.73;17.63;;;13.20;55.60;;;;;;6128776;23;20415;-83
2022/03/13 10:32:08;;;;;;;21.60;17.17;;;13.50;54.00;;;;;;6128951;23;20407;-83
2022/03/13 10:34:35;;;;;;;21.43;18.40;;;13.70;54.50;;;;;;6129023;23;20433;-84
2022/03/13 10:37:02;;;;;;;19.60;16.50;;;13.90;52.70;;;;;;6129624;23;20410;-84
2022/03/13 10:39:30;;;;;;;19.30;17.30;;;14.10;52.60;;;;;;6129744;23;20468;-84
2022/03/13 10:42:01;;;;;;;20.70;18.20;;;14.10;51.30;;;;;;6129772;23;20419;-84
2022/03/13 10:44:31;;;;;;;19.93;17.70;;;14.20;50.10;;;;;;6128994;23;20722;-84
2022/03/13 10:47:01;;;;;;;24.33;19.43;;;14.50;50.60;;;;;;6128901;23;20438;-84
2022/03/13 10:49:40;;;;;;;18.93;16.73;;;14.70;51.30;;;;;;6129225;23;20401;-83
2022/03/13 10:52:27;;;;;;;20.03;18.13;;;15.00;49.30;;;;;;6128838;23;20883;-84
2022/03/13 10:54:54;;;;;;;22.23;19.17;;;15.40;50.00;;;;;;6129989;23;20446;-84
2022/03/13 10:57:23;;;;;;;20.23;17.53;;;15.70;48.80;;;;;;6129206;23;20916;-83
2022/03/13 11:00:09;;;;;;;20.83;18.27;;;15.90;48.90;;;;;;6134078;23;20421;-83
2022/03/13 11:02:36;;;;;;;21.70;19.03;;;16.30;48.80;;;;;;6130695;23;20398;-84
2022/03/13 11:05:04;;;;;;;20.57;18.20;;;16.50;47.00;;;;;;6128713;23;20954;-84
2022/03/13 11:07:31;;;;;;;22.50;20.10;;;16.80;47.00;;;;;;6130177;23;20419;-84
2022/03/13 11:09:58;;;;;;;21.23;18.97;;;17.10;46.40;;;;;;6129811;23;20416;-85
2022/03/13 11:12:27;;;;;;;21.63;18.27;;;17.70;46.70;;;;;;6130684;23;20466;-84
2022/03/13 11:14:56;;;;;;;22.70;17.40;;;18.40;45.30;;;;;;6130160;23;20442;-84
2022/03/13 11:17:26;;;;;;;23.87;19.43;;;19.10;43.80;;;;;;6130328;23;20412;-84
2022/03/13 11:19:56;;;;;;;24.90;21.17;;;19.50;41.80;;;;;;6129310;23;20402;-84
2022/03/13 11:22:23;;;;;;;22.10;19.70;;;20.20;43.00;;;;;;6129793;23;20401;-83
2022/03/13 11:24:51;;;;;;;24.17;20.57;;;20.90;41.70;;;;;;6131418;23;20436;-83
2022/03/13 11:27:18;;;;;;;23.70;21.20;;;21.60;40.60;;;;;;6132920;23;20543;-83
2022/03/13 11:29:51;;;;;;;22.97;20.60;;;21.90;38.50;;;;;;6135980;23;20409;-84
2022/03/13 11:32:37;;;;;;;20.90;18.80;;;22.50;37.80;;;;;;6135511;23;20460;-82
2022/03/13 11:35:25;;;;;;;22.30;19.90;;;23.00;37.90;;;;;;6130717;23;20439;-82
2022/03/13 11:37:54;;;;;;;23.40;21.00;;;23.70;36.90;;;;;;6136723;23;20427;-84
2022/03/13 11:40:31;;;;;;;21.10;19.00;;;24.10;35.90;;;;;;6136042;23;20393;-84
2022/03/13 11:43:08;;;;;;;23.20;21.00;;;24.60;35.60;;;;;;6138766;23;20421;-82
2022/03/13 11:45:39;;;;;;;22.50;20.00;;;25.10;34.10;;;;;;6137144;23;20841;-82
2022/03/13 11:48:36;;;;;;;24.30;20.20;;;24.80;32.60;;;;;;6137916;23;20396;-83
2022/03/13 11:51:05;;;;;;;23.67;21.33;;;25.10;33.50;;;;;;6135778;23;20396;-84
2022/03/13 11:53:44;;;;;;;22.73;20.13;;;25.50;33.10;;;;;;6135257;23;20495;-83
2022/03/13 11:56:13;;;;;;;21.93;19.13;;;26.00;32.80;;;;;;6138722;23;20503;-83
2022/03/13 11:58:42;;;;;;;24.70;20.70;;;25.80;31.30;;;;;;6133744;23;20427;-82
2022/03/13 12:01:15;;;;;;;20.70;18.70;;;25.50;31.10;;;;;;6133876;23;20413;-83
2022/03/13 12:04:24;;;;;;;23.73;20.17;;;25.40;31.70;;;;;;6136449;23;20390;-83
2022/03/13 12:06:56;;;;;;;21.53;19.47;;;26.00;31.90;;;;;;6141376;23;20457;-82
2022/03/13 12:09:28;;;;;;;21.30;19.03;;;25.90;30.40;;;;;;6136046;23;20400;-82
2022/03/13 12:12:03;;;;;;;24.03;20.87;;;25.50;30.50;;;;;;6134080;23;20404;-83
2022/03/13 12:14:55;;;;;;;21.73;19.57;;;26.00;31.40;;;;;;6132425;23;20938;-83
2022/03/13 12:17:28;;;;;;;22.37;20.07;;;26.40;30.60;;;;;;6134073;23;20443;-83
2022/03/13 12:19:57;;;;;;;21.57;19.57;;;26.80;29.60;;;;;;6132803;23;20393;-83
2022/03/13 12:22:26;;;;;;;23.23;20.87;;;27.30;29.80;;;;;;6131212;23;20426;-83
2022/03/13 12:24:54;;;;;;;23.10;21.00;;;27.60;29.20;;;;;;6131571;23;20448;-83
2022/03/13 12:27:22;;;;;;;24.57;22.27;;;28.00;28.70;;;;;;6134977;23;20501;-84
2022/03/13 12:29:55;;;;;;;20.90;18.77;;;28.40;28.20;;;;;;6136985;23;20446;-84
2022/03/13 12:32:27;;;;;;;23.80;21.37;;;28.70;27.60;;;;;;6133175;23;20413;-82
2022/03/13 12:34:55;;;;;;;23.20;21.00;;;28.70;28.60;;;;;;6132562;23;20432;-82
2022/03/13 12:37:26;;;;;;;22.07;19.93;;;28.70;28.60;;;;;;6131080;23;20406;-85
2022/03/13 12:39:55;;;;;;;21.77;19.50;;;28.90;28.30;;;;;;6135082;23;20397;-85
2022/03/13 12:42:23;;;;;;;23.27;20.80;;;29.30;28.00;;;;;;6132552;23;20834;-85
2022/03/13 12:45:12;;;;;;;24.90;22.50;;;29.70;27.30;;;;;;6130977;23;20435;-83
2022/03/13 12:47:55;;;;;;;23.00;20.67;;;30.20;27.80;;;;;;6131739;23;20392;-84